EZY19OM EDDF-EGKK
Flight info
| Callsign | EZY19OM |
|---|---|
| Flight time | 1h 25m |
| Altitude | 36000 |
| Route | OBOKA3M/25C OBOKA Z29 TORNU DCT BREDA DCT VICOT DCT GALSO Q63 ARREK Y4 TEBRA DCT ABTUM DCT ARNUN DCT LARCK DCT EGKK/08R |
| Aircraft | A320/M-V/N |
Departure
| Time | 2026-05-06 16:38 |
|---|---|
| Airport | Frankfurt Main Airport (EDDF) |
Arrival
| Time | 2026-05-06 18:04 |
|---|---|
| Airport | London Gatwick Airport (EGKK) |
| Time | Latitude | Longitude | Altitude | Speed | Heading |
|---|---|---|---|---|---|
| 2026-05-06 16:05 | 50.04533 | 8.56583 | 365 ft | 0 kts | 115° |
| 2026-05-06 16:18 | 50.04539 | 8.56565 | 365 ft | 4 kts | 114° |
| 2026-05-06 16:18 | 50.04550 | 8.56526 | 366 ft | 4 kts | 114° |
| 2026-05-06 16:18 | 50.04559 | 8.56495 | 363 ft | 3 kts | 116° |
| 2026-05-06 16:19 | 50.04574 | 8.56467 | 364 ft | 4 kts | 173° |
| 2026-05-06 16:19 | 50.04587 | 8.56467 | 364 ft | 3 kts | 205° |
| 2026-05-06 16:19 | 50.04570 | 8.56454 | 364 ft | 0 kts | 205° |
| 2026-05-06 16:28 | 50.04569 | 8.56453 | 363 ft | 1 kts | 205° |
| 2026-05-06 16:28 | 50.04553 | 8.56442 | 366 ft | 4 kts | 205° |
| 2026-05-06 16:28 | 50.04523 | 8.56404 | 364 ft | 6 kts | 236° |
| 2026-05-06 16:28 | 50.04503 | 8.56331 | 363 ft | 8 kts | 248° |
| 2026-05-06 16:29 | 50.04481 | 8.56241 | 367 ft | 10 kts | 250° |
| 2026-05-06 16:29 | 50.04454 | 8.56128 | 365 ft | 12 kts | 250° |
| 2026-05-06 16:29 | 50.04416 | 8.56033 | 364 ft | 9 kts | 209° |
| 2026-05-06 16:29 | 50.04352 | 8.56050 | 364 ft | 11 kts | 160° |
| 2026-05-06 16:30 | 50.04285 | 8.56120 | 367 ft | 11 kts | 101° |
| 2026-05-06 16:30 | 50.04280 | 8.56201 | 365 ft | 12 kts | 115° |
| 2026-05-06 16:30 | 50.04182 | 8.56271 | 365 ft | 14 kts | 163° |
| 2026-05-06 16:30 | 50.04144 | 8.56316 | 366 ft | 7 kts | 104° |
| 2026-05-06 16:31 | 50.04156 | 8.56401 | 365 ft | 10 kts | 70° |
| 2026-05-06 16:31 | 50.04183 | 8.56513 | 368 ft | 12 kts | 69° |
| 2026-05-06 16:31 | 50.04216 | 8.56650 | 364 ft | 15 kts | 70° |
| 2026-05-06 16:31 | 50.04254 | 8.56812 | 362 ft | 17 kts | 70° |
| 2026-05-06 16:32 | 50.04298 | 8.56996 | 369 ft | 19 kts | 69° |
| 2026-05-06 16:32 | 50.04347 | 8.57198 | 366 ft | 21 kts | 69° |
| 2026-05-06 16:32 | 50.04395 | 8.57396 | 367 ft | 1 kts | 69° |
| 2026-05-06 16:32 | 50.04398 | 8.57406 | 362 ft | 3 kts | 69° |
| 2026-05-06 16:33 | 50.04408 | 8.57449 | 363 ft | 6 kts | 69° |
| 2026-05-06 16:33 | 50.04426 | 8.57524 | 362 ft | 9 kts | 69° |
| 2026-05-06 16:33 | 50.04451 | 8.57629 | 364 ft | 12 kts | 70° |
| 2026-05-06 16:34 | 50.04520 | 8.57923 | 366 ft | 17 kts | 69° |
| 2026-05-06 16:34 | 50.04565 | 8.58111 | 366 ft | 19 kts | 70° |
| 2026-05-06 16:34 | 50.04614 | 8.58319 | 363 ft | 21 kts | 69° |
| 2026-05-06 16:34 | 50.04643 | 8.58439 | 363 ft | 1 kts | 69° |
| 2026-05-06 16:35 | 50.04650 | 8.58466 | 365 ft | 4 kts | 69° |
| 2026-05-06 16:35 | 50.04656 | 8.58528 | 364 ft | 7 kts | 99° |
| 2026-05-06 16:35 | 50.04613 | 8.58582 | 363 ft | 9 kts | 156° |
| 2026-05-06 16:35 | 50.04552 | 8.58615 | 369 ft | 9 kts | 160° |
| 2026-05-06 16:36 | 50.04493 | 8.58599 | 370 ft | 9 kts | 223° |
| 2026-05-06 16:36 | 50.04469 | 8.58518 | 370 ft | 0 kts | 250° |
| 2026-05-06 16:37 | 50.04373 | 8.58107 | 363 ft | 84 kts | 250° |
| 2026-05-06 16:38 | 50.04083 | 8.56876 | 362 ft | 154 kts | 250° |
| 2026-05-06 16:38 | 50.03635 | 8.55106 | 552 ft | 194 kts | 250° |
| 2026-05-06 16:38 | 50.03160 | 8.53070 | 928 ft | 198 kts | 252° |
| 2026-05-06 16:38 | 50.02710 | 8.51158 | 1522 ft | 180 kts | 252° |
| 2026-05-06 16:39 | 50.02098 | 8.49555 | 2091 ft | 167 kts | 230° |
| 2026-05-06 16:39 | 50.01172 | 8.48419 | 2310 ft | 179 kts | 209° |
| 2026-05-06 16:39 | 49.99916 | 8.47940 | 2421 ft | 193 kts | 191° |
| 2026-05-06 16:39 | 49.98499 | 8.47645 | 2674 ft | 219 kts | 192° |
| 2026-05-06 16:40 | 49.96983 | 8.47295 | 3691 ft | 217 kts | 190° |
| 2026-05-06 16:40 | 49.95560 | 8.46883 | 5034 ft | 202 kts | 199° |
| 2026-05-06 16:40 | 49.94192 | 8.46234 | 5958 ft | 212 kts | 200° |
| 2026-05-06 16:40 | 49.92710 | 8.45493 | 6499 ft | 236 kts | 202° |
| 2026-05-06 16:41 | 49.91290 | 8.44147 | 7004 ft | 240 kts | 226° |
| 2026-05-06 16:41 | 49.90294 | 8.42068 | 7214 ft | 244 kts | 238° |
| 2026-05-06 16:41 | 49.89422 | 8.39802 | 7032 ft | 241 kts | 239° |
| 2026-05-06 16:41 | 49.88749 | 8.37429 | 6907 ft | 244 kts | 256° |
| 2026-05-06 16:42 | 49.88626 | 8.34797 | 7184 ft | 248 kts | 274° |
| 2026-05-06 16:42 | 49.88794 | 8.32048 | 7722 ft | 267 kts | 273° |
| 2026-05-06 16:42 | 49.88965 | 8.29141 | 8759 ft | 273 kts | 275° |
| 2026-05-06 16:42 | 49.89437 | 8.26261 | 9818 ft | 281 kts | 291° |
| 2026-05-06 16:43 | 49.90445 | 8.23561 | 10482 ft | 302 kts | 304° |
| 2026-05-06 16:43 | 49.91755 | 8.20842 | 10854 ft | 327 kts | 305° |
| 2026-05-06 16:43 | 49.93117 | 8.18035 | 11461 ft | 336 kts | 306° |
| 2026-05-06 16:43 | 49.94671 | 8.15291 | 12240 ft | 341 kts | 313° |
| 2026-05-06 16:44 | 49.96461 | 8.12834 | 12625 ft | 345 kts | 317° |
| 2026-05-06 16:44 | 49.98289 | 8.10414 | 12770 ft | 346 kts | 317° |
| 2026-05-06 16:44 | 50.00098 | 8.08009 | 12808 ft | 347 kts | 317° |
| 2026-05-06 16:44 | 50.01933 | 8.05562 | 12806 ft | 344 kts | 317° |
| 2026-05-06 16:45 | 50.03739 | 8.03145 | 12804 ft | 345 kts | 317° |
| 2026-05-06 16:45 | 50.05558 | 8.00706 | 12804 ft | 345 kts | 317° |
| 2026-05-06 16:45 | 50.07381 | 7.98256 | 12806 ft | 347 kts | 317° |
| 2026-05-06 16:45 | 50.09179 | 7.95841 | 12806 ft | 345 kts | 317° |
| 2026-05-06 16:46 | 50.10997 | 7.93394 | 12808 ft | 346 kts | 317° |
| 2026-05-06 16:46 | 50.12816 | 7.90944 | 12808 ft | 346 kts | 317° |
| 2026-05-06 16:46 | 50.14632 | 7.88497 | 12812 ft | 347 kts | 317° |
| 2026-05-06 16:46 | 50.16453 | 7.86042 | 12812 ft | 346 kts | 316° |
| 2026-05-06 16:47 | 50.18275 | 7.83581 | 12812 ft | 346 kts | 317° |
| 2026-05-06 16:47 | 50.20096 | 7.81117 | 12823 ft | 346 kts | 317° |
| 2026-05-06 16:47 | 50.21927 | 7.78639 | 12943 ft | 349 kts | 317° |
| 2026-05-06 16:47 | 50.23766 | 7.76152 | 13665 ft | 350 kts | 318° |
| 2026-05-06 16:48 | 50.25738 | 7.73905 | 14445 ft | 354 kts | 326° |
| 2026-05-06 16:48 | 50.27935 | 7.72103 | 15122 ft | 361 kts | 334° |
| 2026-05-06 16:48 | 50.30263 | 7.70541 | 15813 ft | 366 kts | 334° |
| 2026-05-06 16:48 | 50.32576 | 7.68967 | 16487 ft | 370 kts | 334° |
| 2026-05-06 16:49 | 50.34924 | 7.67359 | 17149 ft | 374 kts | 334° |
| 2026-05-06 16:49 | 50.37323 | 7.65711 | 17797 ft | 379 kts | 334° |
| 2026-05-06 16:49 | 50.39752 | 7.64040 | 18436 ft | 383 kts | 334° |
| 2026-05-06 16:49 | 50.42200 | 7.62359 | 19054 ft | 386 kts | 333° |
| 2026-05-06 16:50 | 50.42939 | 7.61850 | 19241 ft | 387 kts | 333° |
| 2026-05-06 16:50 | 50.43326 | 7.61585 | 19336 ft | 387 kts | 333° |
| 2026-05-06 16:50 | 50.45800 | 7.59882 | 19977 ft | 390 kts | 333° |
| 2026-05-06 16:50 | 50.48297 | 7.58161 | 20582 ft | 393 kts | 333° |
| 2026-05-06 16:51 | 50.50801 | 7.56434 | 21184 ft | 396 kts | 333° |
| 2026-05-06 16:51 | 50.51620 | 7.55868 | 21362 ft | 397 kts | 333° |
| 2026-05-06 16:51 | 50.54164 | 7.54109 | 21972 ft | 400 kts | 333° |
| 2026-05-06 16:51 | 50.56639 | 7.52116 | 22547 ft | 400 kts | 325° |
| 2026-05-06 16:52 | 50.58974 | 7.49731 | 23117 ft | 402 kts | 323° |
| 2026-05-06 16:52 | 50.61329 | 7.47313 | 23639 ft | 405 kts | 323° |
| 2026-05-06 16:52 | 50.63706 | 7.44881 | 24065 ft | 411 kts | 324° |
| 2026-05-06 16:52 | 50.66120 | 7.42407 | 24509 ft | 416 kts | 325° |
| 2026-05-06 16:53 | 50.68547 | 7.39918 | 25048 ft | 419 kts | 325° |
| 2026-05-06 16:53 | 50.70999 | 7.37397 | 25536 ft | 421 kts | 324° |
| 2026-05-06 16:53 | 50.73287 | 7.34520 | 25983 ft | 422 kts | 314° |
| 2026-05-06 16:53 | 50.75207 | 7.31021 | 26396 ft | 422 kts | 303° |
| 2026-05-06 16:54 | 50.76705 | 7.27037 | 26810 ft | 423 kts | 295° |
| 2026-05-06 16:54 | 50.78049 | 7.22875 | 27214 ft | 426 kts | 296° |
| 2026-05-06 16:54 | 50.79390 | 7.18754 | 27587 ft | 429 kts | 296° |
| 2026-05-06 16:54 | 50.80757 | 7.14558 | 27966 ft | 432 kts | 296° |
| 2026-05-06 16:55 | 50.82134 | 7.10323 | 28329 ft | 434 kts | 296° |
| 2026-05-06 16:55 | 50.83520 | 7.06053 | 28710 ft | 436 kts | 296° |
| 2026-05-06 16:55 | 50.84907 | 7.01759 | 29027 ft | 440 kts | 296° |
| 2026-05-06 16:55 | 50.86303 | 6.97430 | 29411 ft | 443 kts | 296° |
| 2026-05-06 16:56 | 50.87705 | 6.93079 | 29769 ft | 445 kts | 296° |
| 2026-05-06 16:56 | 50.89108 | 6.88718 | 30103 ft | 448 kts | 296° |
| 2026-05-06 16:56 | 50.90525 | 6.84310 | 30448 ft | 450 kts | 296° |
| 2026-05-06 16:56 | 50.91946 | 6.79883 | 30777 ft | 451 kts | 295° |
| 2026-05-06 16:57 | 50.93368 | 6.75441 | 31089 ft | 452 kts | 295° |
| 2026-05-06 16:57 | 50.94791 | 6.70988 | 31463 ft | 452 kts | 295° |
| 2026-05-06 16:57 | 50.96210 | 6.66542 | 31870 ft | 451 kts | 295° |
| 2026-05-06 16:57 | 50.97606 | 6.62160 | 32254 ft | 450 kts | 295° |
| 2026-05-06 16:58 | 50.99015 | 6.57726 | 32561 ft | 451 kts | 295° |
| 2026-05-06 16:58 | 51.00427 | 6.53277 | 32917 ft | 451 kts | 295° |
| 2026-05-06 16:58 | 51.01834 | 6.48836 | 33309 ft | 449 kts | 295° |
| 2026-05-06 16:58 | 51.03226 | 6.44436 | 33665 ft | 448 kts | 294° |
| 2026-05-06 16:59 | 51.04624 | 6.40005 | 34015 ft | 447 kts | 294° |
| 2026-05-06 16:59 | 51.06016 | 6.35589 | 34285 ft | 447 kts | 294° |
| 2026-05-06 16:59 | 51.07406 | 6.31168 | 34539 ft | 447 kts | 294° |
| 2026-05-06 16:59 | 51.08784 | 6.26774 | 34785 ft | 447 kts | 294° |
| 2026-05-06 17:00 | 51.10173 | 6.22343 | 35028 ft | 447 kts | 294° |
| 2026-05-06 17:00 | 51.11557 | 6.17919 | 35265 ft | 447 kts | 294° |
| 2026-05-06 17:00 | 51.12931 | 6.13472 | 35439 ft | 448 kts | 292° |
| 2026-05-06 17:00 | 51.14092 | 6.08880 | 35634 ft | 447 kts | 286° |
| 2026-05-06 17:01 | 51.14964 | 6.04164 | 35833 ft | 445 kts | 282° |
| 2026-05-06 17:01 | 51.16506 | 5.94628 | 35878 ft | 444 kts | 282° |
| 2026-05-06 17:02 | 51.18285 | 5.85197 | 35885 ft | 446 kts | 289° |
| 2026-05-06 17:02 | 51.21076 | 5.76355 | 35886 ft | 447 kts | 300° |
| 2026-05-06 17:03 | 51.24375 | 5.67947 | 35887 ft | 447 kts | 300° |
| 2026-05-06 17:03 | 51.27652 | 5.59503 | 35883 ft | 447 kts | 300° |
| 2026-05-06 17:04 | 51.30925 | 5.51054 | 35884 ft | 447 kts | 300° |
| 2026-05-06 17:04 | 51.34188 | 5.42607 | 35880 ft | 446 kts | 300° |
| 2026-05-06 17:05 | 51.37443 | 5.34156 | 35878 ft | 446 kts | 299° |
| 2026-05-06 17:05 | 51.40692 | 5.25693 | 35884 ft | 446 kts | 300° |
| 2026-05-06 17:06 | 51.43915 | 5.17269 | 35887 ft | 446 kts | 299° |
| 2026-05-06 17:06 | 51.47151 | 5.08783 | 35923 ft | 446 kts | 299° |
| 2026-05-06 17:07 | 51.50380 | 5.00291 | 35924 ft | 446 kts | 299° |
| 2026-05-06 17:07 | 51.53529 | 4.91726 | 35919 ft | 444 kts | 293° |
| 2026-05-06 17:08 | 51.55175 | 4.82293 | 35912 ft | 438 kts | 273° |
| 2026-05-06 17:08 | 51.54813 | 4.72635 | 35908 ft | 435 kts | 260° |
| 2026-05-06 17:09 | 51.53889 | 4.63001 | 35887 ft | 435 kts | 260° |
| 2026-05-06 17:09 | 51.52968 | 4.53399 | 35884 ft | 435 kts | 260° |
| 2026-05-06 17:10 | 51.52034 | 4.43808 | 35880 ft | 435 kts | 260° |
| 2026-05-06 17:10 | 51.51089 | 4.34216 | 35882 ft | 435 kts | 260° |
| 2026-05-06 17:11 | 51.50147 | 4.24730 | 35878 ft | 435 kts | 260° |
| 2026-05-06 17:11 | 51.49189 | 4.15176 | 35871 ft | 435 kts | 260° |
| 2026-05-06 17:12 | 51.49018 | 4.05489 | 35870 ft | 437 kts | 277° |
| 2026-05-06 17:12 | 51.50736 | 3.96141 | 35880 ft | 440 kts | 294° |
| 2026-05-06 17:13 | 51.53339 | 3.87240 | 35885 ft | 441 kts | 293° |
| 2026-05-06 17:13 | 51.55908 | 3.78343 | 35905 ft | 438 kts | 293° |
| 2026-05-06 17:14 | 51.58455 | 3.69482 | 35903 ft | 437 kts | 293° |
| 2026-05-06 17:14 | 51.61005 | 3.60577 | 35906 ft | 436 kts | 292° |
| 2026-05-06 17:15 | 51.63525 | 3.51737 | 35914 ft | 438 kts | 292° |
| 2026-05-06 17:15 | 51.66044 | 3.42868 | 35915 ft | 440 kts | 293° |
| 2026-05-06 17:16 | 51.68557 | 3.33995 | 35919 ft | 436 kts | 293° |
| 2026-05-06 17:16 | 51.71045 | 3.25145 | 35925 ft | 438 kts | 291° |
| 2026-05-06 17:17 | 51.72549 | 3.15738 | 35926 ft | 431 kts | 274° |
| 2026-05-06 17:17 | 51.72323 | 3.06145 | 35941 ft | 430 kts | 261° |
| 2026-05-06 17:18 | 51.71486 | 2.96546 | 35936 ft | 432 kts | 261° |
| 2026-05-06 17:18 | 51.70686 | 2.87279 | 35941 ft | 430 kts | 261° |
| 2026-05-06 17:19 | 51.69842 | 2.77695 | 35939 ft | 434 kts | 261° |
| 2026-05-06 17:19 | 51.68987 | 2.68106 | 35948 ft | 431 kts | 261° |
| 2026-05-06 17:20 | 51.68129 | 2.58527 | 35942 ft | 433 kts | 261° |
| 2026-05-06 17:20 | 51.67274 | 2.49044 | 35952 ft | 431 kts | 261° |
| 2026-05-06 17:21 | 51.66397 | 2.39445 | 35950 ft | 432 kts | 261° |
| 2026-05-06 17:21 | 51.65513 | 2.29866 | 35948 ft | 433 kts | 261° |
| 2026-05-06 17:22 | 51.64618 | 2.20249 | 35953 ft | 433 kts | 261° |
| 2026-05-06 17:22 | 51.63723 | 2.10721 | 35951 ft | 433 kts | 261° |
| 2026-05-06 17:23 | 51.62830 | 2.01146 | 35955 ft | 433 kts | 261° |
| 2026-05-06 17:23 | 51.62047 | 1.91552 | 35956 ft | 434 kts | 261° |
| 2026-05-06 17:23 | 51.61334 | 1.86895 | 35956 ft | 435 kts | 249° |
| 2026-05-06 17:24 | 51.60041 | 1.82559 | 35955 ft | 436 kts | 239° |
| 2026-05-06 17:24 | 51.56421 | 1.74740 | 35955 ft | 437 kts | 230° |
| 2026-05-06 17:25 | 51.52414 | 1.67474 | 35965 ft | 438 kts | 229° |
| 2026-05-06 17:25 | 51.48811 | 1.59628 | 35960 ft | 436 kts | 242° |
| 2026-05-06 17:25 | 51.47500 | 1.55260 | 35726 ft | 434 kts | 249° |
| 2026-05-06 17:26 | 51.46783 | 1.52197 | 35349 ft | 435 kts | 250° |
| 2026-05-06 17:26 | 51.45761 | 1.47682 | 34590 ft | 438 kts | 250° |
| 2026-05-06 17:26 | 51.44684 | 1.43079 | 33611 ft | 444 kts | 246° |
| 2026-05-06 17:26 | 51.43164 | 1.38740 | 32562 ft | 449 kts | 235° |
| 2026-05-06 17:27 | 51.41118 | 1.34934 | 31563 ft | 453 kts | 224° |
| 2026-05-06 17:27 | 51.38653 | 1.31779 | 30643 ft | 455 kts | 217° |
| 2026-05-06 17:27 | 51.36102 | 1.28783 | 29604 ft | 456 kts | 217° |
| 2026-05-06 17:27 | 51.33546 | 1.25771 | 28665 ft | 455 kts | 217° |
| 2026-05-06 17:28 | 51.31014 | 1.22785 | 27926 ft | 449 kts | 217° |
| 2026-05-06 17:28 | 51.28513 | 1.19839 | 27186 ft | 444 kts | 217° |
| 2026-05-06 17:28 | 51.26031 | 1.16917 | 26457 ft | 440 kts | 217° |
| 2026-05-06 17:28 | 51.23579 | 1.14034 | 25750 ft | 436 kts | 217° |
| 2026-05-06 17:29 | 51.21149 | 1.11180 | 25055 ft | 432 kts | 217° |
| 2026-05-06 17:29 | 51.18742 | 1.08358 | 24382 ft | 428 kts | 217° |
| 2026-05-06 17:29 | 51.16352 | 1.05560 | 23726 ft | 424 kts | 217° |
| 2026-05-06 17:29 | 51.13982 | 1.02788 | 22998 ft | 420 kts | 217° |
| 2026-05-06 17:30 | 51.11634 | 1.00045 | 22274 ft | 416 kts | 217° |
| 2026-05-06 17:30 | 51.09315 | 0.97341 | 21580 ft | 412 kts | 217° |
| 2026-05-06 17:30 | 51.07126 | 0.94448 | 20871 ft | 407 kts | 226° |
| 2026-05-06 17:30 | 51.05313 | 0.91053 | 20073 ft | 399 kts | 236° |
| 2026-05-06 17:31 | 51.03923 | 0.87273 | 19084 ft | 394 kts | 246° |
| 2026-05-06 17:31 | 51.02775 | 0.83352 | 18116 ft | 389 kts | 246° |
| 2026-05-06 17:31 | 51.01634 | 0.79484 | 17124 ft | 384 kts | 246° |
| 2026-05-06 17:31 | 51.00518 | 0.75728 | 16168 ft | 379 kts | 246° |
| 2026-05-06 17:32 | 50.99396 | 0.71975 | 15199 ft | 375 kts | 245° |
| 2026-05-06 17:32 | 50.98280 | 0.68257 | 14298 ft | 370 kts | 246° |
| 2026-05-06 17:32 | 50.97177 | 0.64590 | 13374 ft | 366 kts | 246° |
| 2026-05-06 17:32 | 50.96088 | 0.60975 | 12522 ft | 360 kts | 246° |
| 2026-05-06 17:33 | 50.95034 | 0.57482 | 12149 ft | 341 kts | 246° |
| 2026-05-06 17:33 | 50.94023 | 0.54139 | 11998 ft | 339 kts | 246° |
| 2026-05-06 17:33 | 50.92999 | 0.50748 | 11957 ft | 340 kts | 246° |
| 2026-05-06 17:33 | 50.92035 | 0.47353 | 11723 ft | 337 kts | 253° |
| 2026-05-06 17:34 | 50.91689 | 0.43712 | 11217 ft | 333 kts | 274° |
| 2026-05-06 17:34 | 50.92151 | 0.40160 | 10737 ft | 329 kts | 290° |
| 2026-05-06 17:34 | 50.92927 | 0.36757 | 10241 ft | 325 kts | 291° |
| 2026-05-06 17:34 | 50.93686 | 0.33439 | 9749 ft | 315 kts | 291° |
| 2026-05-06 17:35 | 50.94418 | 0.30218 | 9215 ft | 305 kts | 291° |
| 2026-05-06 17:35 | 50.95122 | 0.27094 | 8684 ft | 296 kts | 290° |
| 2026-05-06 17:35 | 50.95644 | 0.23955 | 8004 ft | 294 kts | 282° |
| 2026-05-06 17:36 | 50.96339 | 0.17665 | 7118 ft | 275 kts | 281° |
| 2026-05-06 17:36 | 50.96657 | 0.14748 | 7020 ft | 268 kts | 281° |
| 2026-05-06 17:36 | 50.96974 | 0.11818 | 7011 ft | 267 kts | 281° |
| 2026-05-06 17:36 | 50.97271 | 0.09033 | 7006 ft | 245 kts | 281° |
| 2026-05-06 17:37 | 50.97559 | 0.06433 | 6997 ft | 239 kts | 281° |
| 2026-05-06 17:37 | 50.97847 | 0.03825 | 6763 ft | 239 kts | 281° |
| 2026-05-06 17:37 | 50.98126 | 0.01244 | 6283 ft | 237 kts | 281° |
| 2026-05-06 17:37 | 50.98413 | -0.01351 | 5612 ft | 241 kts | 282° |
| 2026-05-06 17:38 | 50.98676 | -0.03915 | 5263 ft | 231 kts | 281° |
| 2026-05-06 17:38 | 50.98943 | -0.06445 | 4653 ft | 235 kts | 281° |
| 2026-05-06 17:38 | 50.99220 | -0.09040 | 3993 ft | 240 kts | 281° |
| 2026-05-06 17:38 | 50.99493 | -0.11640 | 3456 ft | 238 kts | 281° |
| 2026-05-06 17:39 | 50.99747 | -0.14202 | 3102 ft | 228 kts | 281° |
| 2026-05-06 17:39 | 50.99974 | -0.16638 | 3007 ft | 230 kts | 281° |
| 2026-05-06 17:39 | 51.00202 | -0.19140 | 2996 ft | 227 kts | 281° |
| 2026-05-06 17:39 | 51.00430 | -0.21615 | 3005 ft | 228 kts | 281° |
| 2026-05-06 17:40 | 51.00669 | -0.24109 | 3005 ft | 229 kts | 281° |
| 2026-05-06 17:40 | 51.00904 | -0.26592 | 3003 ft | 227 kts | 281° |
| 2026-05-06 17:40 | 51.01125 | -0.29089 | 3007 ft | 228 kts | 281° |
| 2026-05-06 17:40 | 51.01344 | -0.31586 | 3003 ft | 227 kts | 281° |
| 2026-05-06 17:41 | 51.01560 | -0.34064 | 3004 ft | 228 kts | 281° |
| 2026-05-06 17:41 | 51.01793 | -0.36563 | 3005 ft | 230 kts | 281° |
| 2026-05-06 17:41 | 51.02020 | -0.39025 | 3005 ft | 228 kts | 281° |
| 2026-05-06 17:41 | 51.02331 | -0.41485 | 2991 ft | 226 kts | 296° |
| 2026-05-06 17:42 | 51.03257 | -0.43350 | 3001 ft | 208 kts | 329° |
| 2026-05-06 17:42 | 51.04476 | -0.44408 | 2998 ft | 191 kts | 335° |
| 2026-05-06 17:42 | 51.05612 | -0.45332 | 3007 ft | 176 kts | 335° |
| 2026-05-06 17:42 | 51.06722 | -0.46226 | 3011 ft | 181 kts | 337° |
| 2026-05-06 17:43 | 51.07917 | -0.46454 | 3004 ft | 177 kts | 15° |
| 2026-05-06 17:43 | 51.08967 | -0.45416 | 3008 ft | 178 kts | 40° |
| 2026-05-06 17:43 | 51.09874 | -0.44096 | 3001 ft | 176 kts | 41° |
| 2026-05-06 17:43 | 51.10788 | -0.42755 | 3000 ft | 179 kts | 41° |
| 2026-05-06 17:44 | 51.11698 | -0.41426 | 3001 ft | 178 kts | 40° |
| 2026-05-06 17:44 | 51.12424 | -0.39820 | 3006 ft | 181 kts | 65° |
| 2026-05-06 17:44 | 51.12864 | -0.37941 | 3002 ft | 182 kts | 72° |
| 2026-05-06 17:44 | 51.13090 | -0.35952 | 2995 ft | 182 kts | 78° |
| 2026-05-06 17:45 | 51.13267 | -0.34051 | 3001 ft | 166 kts | 79° |
| 2026-05-06 17:45 | 51.13431 | -0.32266 | 3002 ft | 164 kts | 78° |
| 2026-05-06 17:45 | 51.13596 | -0.30504 | 3007 ft | 163 kts | 78° |
| 2026-05-06 17:45 | 51.13769 | -0.28711 | 2845 ft | 165 kts | 77° |
| 2026-05-06 17:46 | 51.13936 | -0.26969 | 2961 ft | 159 kts | 78° |
| 2026-05-06 17:46 | 51.14086 | -0.25174 | 3003 ft | 163 kts | 79° |
| 2026-05-06 17:46 | 51.14252 | -0.23397 | 3002 ft | 163 kts | 77° |
| 2026-05-06 17:46 | 51.14460 | -0.21629 | 2999 ft | 161 kts | 75° |
| 2026-05-06 17:47 | 51.14703 | -0.19871 | 2998 ft | 161 kts | 73° |
| 2026-05-06 17:47 | 51.14971 | -0.18125 | 3001 ft | 162 kts | 64° |
| 2026-05-06 17:47 | 51.15372 | -0.16470 | 3007 ft | 164 kts | 78° |
| 2026-05-06 17:47 | 51.15496 | -0.14663 | 3002 ft | 164 kts | 81° |
| 2026-05-06 17:48 | 51.15605 | -0.12845 | 3000 ft | 164 kts | 81° |
| 2026-05-06 17:48 | 51.15714 | -0.11035 | 3003 ft | 165 kts | 81° |
| 2026-05-06 17:48 | 51.15830 | -0.09236 | 3001 ft | 164 kts | 81° |
| 2026-05-06 17:48 | 51.15951 | -0.07416 | 2997 ft | 164 kts | 81° |
| 2026-05-06 17:49 | 51.16041 | -0.05608 | 2998 ft | 166 kts | 90° |
| 2026-05-06 17:49 | 51.15554 | -0.03954 | 3005 ft | 174 kts | 134° |
| 2026-05-06 17:49 | 51.14597 | -0.02762 | 3001 ft | 174 kts | 141° |
| 2026-05-06 17:49 | 51.13635 | -0.01624 | 3009 ft | 170 kts | 141° |
| 2026-05-06 17:50 | 51.12679 | -0.00475 | 2996 ft | 171 kts | 141° |
| 2026-05-06 17:50 | 51.11719 | 0.00680 | 3015 ft | 173 kts | 141° |
| 2026-05-06 17:50 | 51.10758 | 0.01821 | 3019 ft | 173 kts | 141° |
| 2026-05-06 17:50 | 51.09780 | 0.02987 | 3019 ft | 174 kts | 141° |
| 2026-05-06 17:51 | 51.08828 | 0.04131 | 3016 ft | 172 kts | 141° |
| 2026-05-06 17:51 | 51.07873 | 0.05284 | 3012 ft | 172 kts | 141° |
| 2026-05-06 17:51 | 51.06932 | 0.06421 | 3018 ft | 174 kts | 141° |
| 2026-05-06 17:51 | 51.05883 | 0.07687 | 3011 ft | 205 kts | 141° |
| 2026-05-06 17:52 | 51.04638 | 0.09124 | 3011 ft | 231 kts | 151° |
| 2026-05-06 17:52 | 51.03070 | 0.09674 | 3016 ft | 237 kts | 185° |
| 2026-05-06 17:52 | 51.01536 | 0.08845 | 3016 ft | 235 kts | 217° |
| 2026-05-06 17:52 | 51.00525 | 0.06898 | 3011 ft | 231 kts | 248° |
| 2026-05-06 17:53 | 51.00195 | 0.04429 | 3018 ft | 229 kts | 274° |
| 2026-05-06 17:53 | 51.00274 | 0.01907 | 3009 ft | 230 kts | 276° |
| 2026-05-06 17:53 | 51.00374 | -0.00612 | 3004 ft | 229 kts | 276° |
| 2026-05-06 17:53 | 51.00467 | -0.03118 | 3001 ft | 230 kts | 276° |
| 2026-05-06 17:54 | 51.00548 | -0.05643 | 3005 ft | 230 kts | 276° |
| 2026-05-06 17:54 | 51.00629 | -0.08176 | 3003 ft | 228 kts | 276° |
| 2026-05-06 17:54 | 51.00722 | -0.10699 | 3004 ft | 230 kts | 276° |
| 2026-05-06 17:54 | 51.00817 | -0.13229 | 3000 ft | 229 kts | 276° |
| 2026-05-06 17:55 | 51.00918 | -0.15747 | 3001 ft | 228 kts | 276° |
| 2026-05-06 17:55 | 51.01006 | -0.18250 | 3000 ft | 228 kts | 276° |
| 2026-05-06 17:55 | 51.01102 | -0.20774 | 3006 ft | 229 kts | 276° |
| 2026-05-06 17:55 | 51.01199 | -0.23285 | 3005 ft | 228 kts | 276° |
| 2026-05-06 17:56 | 51.01299 | -0.25785 | 3001 ft | 229 kts | 276° |
| 2026-05-06 17:56 | 51.01395 | -0.28241 | 3000 ft | 228 kts | 276° |
| 2026-05-06 17:56 | 51.01492 | -0.30743 | 3005 ft | 229 kts | 276° |
| 2026-05-06 17:56 | 51.01576 | -0.33253 | 3005 ft | 229 kts | 276° |
| 2026-05-06 17:57 | 51.01667 | -0.35751 | 3001 ft | 229 kts | 276° |
| 2026-05-06 17:57 | 51.01769 | -0.38282 | 3004 ft | 229 kts | 276° |
| 2026-05-06 17:57 | 51.01864 | -0.40794 | 3004 ft | 229 kts | 276° |
| 2026-05-06 17:57 | 51.01949 | -0.43315 | 3005 ft | 228 kts | 276° |
| 2026-05-06 17:58 | 51.02397 | -0.45660 | 3010 ft | 222 kts | 307° |
| 2026-05-06 17:58 | 51.03509 | -0.47158 | 3002 ft | 203 kts | 340° |
| 2026-05-06 17:58 | 51.04807 | -0.47792 | 2925 ft | 191 kts | 346° |
| 2026-05-06 17:58 | 51.06091 | -0.48344 | 2598 ft | 194 kts | 346° |
| 2026-05-06 17:59 | 51.07403 | -0.48915 | 2198 ft | 194 kts | 346° |
| 2026-05-06 17:59 | 51.08646 | -0.49464 | 2052 ft | 174 kts | 346° |
| 2026-05-06 17:59 | 51.09808 | -0.49477 | 2018 ft | 175 kts | 21° |
| 2026-05-06 17:59 | 51.10701 | -0.48224 | 2012 ft | 176 kts | 58° |
| 2026-05-06 18:00 | 51.11079 | -0.47072 | 2000 ft | 178 kts | 61° |
| 2026-05-06 18:00 | 51.11790 | -0.44675 | 1999 ft | 178 kts | 72° |
| 2026-05-06 18:00 | 51.11991 | -0.42711 | 2004 ft | 182 kts | 82° |
| 2026-05-06 18:00 | 51.11962 | -0.40708 | 2008 ft | 182 kts | 90° |
| 2026-05-06 18:01 | 51.11978 | -0.38697 | 2003 ft | 182 kts | 81° |
| 2026-05-06 18:01 | 51.12226 | -0.36724 | 2028 ft | 182 kts | 73° |
| 2026-05-06 18:01 | 51.12562 | -0.34805 | 2028 ft | 180 kts | 71° |
| 2026-05-06 18:01 | 51.12787 | -0.32821 | 2029 ft | 181 kts | 75° |
| 2026-05-06 18:02 | 51.13075 | -0.30899 | 2026 ft | 181 kts | 73° |
| 2026-05-06 18:02 | 51.13397 | -0.28972 | 1801 ft | 179 kts | 72° |
| 2026-05-06 18:02 | 51.13697 | -0.27078 | 1423 ft | 173 kts | 74° |
| 2026-05-06 18:02 | 51.13935 | -0.25259 | 1124 ft | 160 kts | 75° |
| 2026-05-06 18:03 | 51.14162 | -0.23604 | 841 ft | 154 kts | 74° |
| 2026-05-06 18:03 | 51.14414 | -0.21949 | 491 ft | 152 kts | 76° |
| 2026-05-06 18:03 | 51.14636 | -0.20326 | 227 ft | 148 kts | 76° |
| 2026-05-06 18:03 | 51.14816 | -0.19119 | 214 ft | 55 kts | 79° |
| 2026-05-06 18:04 | 51.14843 | -0.18895 | 210 ft | 16 kts | 79° |
| 2026-05-06 18:04 | 51.14866 | -0.18704 | 206 ft | 18 kts | 79° |
| 2026-05-06 18:04 | 51.14933 | -0.18537 | 213 ft | 18 kts | 52° |
| 2026-05-06 18:04 | 51.15013 | -0.18375 | 217 ft | 19 kts | 52° |
| 2026-05-06 18:05 | 51.15041 | -0.18320 | 207 ft | 0 kts | 51° |
| 2026-05-06 18:05 | 51.15049 | -0.18304 | 213 ft | 4 kts | 51° |
| 2026-05-06 18:05 | 51.15075 | -0.18254 | 212 ft | 8 kts | 51° |
| 2026-05-06 18:05 | 51.15109 | -0.18186 | 211 ft | 8 kts | 52° |
| 2026-05-06 18:06 | 51.15128 | -0.18092 | 205 ft | 10 kts | 76° |
| 2026-05-06 18:06 | 51.15147 | -0.17975 | 214 ft | 12 kts | 77° |
| 2026-05-06 18:06 | 51.15167 | -0.17836 | 205 ft | 14 kts | 77° |
| 2026-05-06 18:06 | 51.15187 | -0.17673 | 208 ft | 16 kts | 79° |
| 2026-05-06 18:07 | 51.15210 | -0.17503 | 205 ft | 1 kts | 76° |
| 2026-05-06 18:07 | 51.15211 | -0.17493 | 205 ft | 2 kts | 76° |
| 2026-05-06 18:07 | 51.15216 | -0.17464 | 209 ft | 0 kts | 76° |
| 2026-05-06 18:08 | 51.15216 | -0.17463 | 209 ft | 1 kts | 76° |
| 2026-05-06 18:08 | 51.15220 | -0.17436 | 210 ft | 4 kts | 76° |
| 2026-05-06 18:08 | 51.15232 | -0.17374 | 212 ft | 7 kts | 62° |
| 2026-05-06 18:08 | 51.15282 | -0.17348 | 205 ft | 9 kts | 347° |
| 2026-05-06 18:09 | 51.15354 | -0.17355 | 210 ft | 12 kts | 24° |
| 2026-05-06 18:09 | 51.15372 | -0.17302 | 211 ft | 1 kts | 78° |
| 2026-05-06 18:09 | 51.15377 | -0.17270 | 213 ft | 5 kts | 77° |
| 2026-05-06 18:09 | 51.15386 | -0.17203 | 204 ft | 8 kts | 77° |
| 2026-05-06 18:10 | 51.15410 | -0.17111 | 209 ft | 10 kts | 72° |
| 2026-05-06 18:10 | 51.15433 | -0.17025 | 209 ft | 5 kts | 12° |
| 2026-05-06 18:10 | 51.15460 | -0.17025 | 206 ft | 7 kts | 352° |
| 2026-05-06 18:10 | 51.15482 | -0.17032 | 208 ft | 0 kts | 349° |
| 2026-05-06 18:33 | 51.15481 | -0.17031 | 205 ft | 0 kts | 348° |